Time;durP1;ratioP1;P1;durP2;ratioP2;P2;SDS_P1;SDS_P2;PMS_P1;PMS_P2;Temp;Humidity;BMP_temperature;BMP_pressure;BME280_temperature;BME280_humidity;BME280_pressure;Samples;Min_cycle;Max_cycle;Signal;HPM_P1;HPM_P2
2022/06/09 00:01:32;;;;;;;40.10;16.23;;;14.50;94.90;;;;;;5073573;28;20076;-79
2022/06/09 00:04:15;;;;;;;43.67;18.85;;;14.50;94.80;;;;;;5073868;28;20388;-79
2022/06/09 00:06:56;;;;;;;39.00;16.77;;;14.50;94.90;;;;;;5073715;28;20078;-80
2022/06/09 00:09:33;;;;;;;33.15;15.43;;;14.50;94.90;;;;;;5073479;28;20404;-82
2022/06/09 00:12:03;;;;;;;48.75;16.80;;;14.50;94.90;;;;;;5073029;28;20079;-80
2022/06/09 00:14:29;;;;;;;37.40;17.35;;;14.50;94.80;;;;;;5056625;28;20389;-80
2022/06/09 00:16:56;;;;;;;36.78;15.82;;;14.40;94.80;;;;;;5056672;28;20481;-80
2022/06/09 00:19:22;;;;;;;39.47;18.15;;;14.40;94.80;;;;;;5073563;28;20044;-80
2022/06/09 00:21:47;;;;;;;44.67;16.73;;;14.30;94.80;;;;;;5073357;28;20041;-81
2022/06/09 00:24:14;;;;;;;39.70;16.10;;;14.30;94.90;;;;;;5056901;28;20389;-79
2022/06/09 00:26:40;;;;;;;41.33;17.25;;;14.30;94.80;;;;;;5057206;28;20119;-81
2022/06/09 00:29:06;;;;;;;38.30;15.25;;;14.20;94.80;;;;;;5073351;28;20135;-82
2022/06/09 00:31:32;;;;;;;43.45;17.85;;;14.20;94.80;;;;;;5056531;28;20400;-80
2022/06/09 00:33:59;;;;;;;53.67;19.30;;;14.20;94.80;;;;;;5073181;28;20400;-79
2022/06/09 00:36:25;;;;;;;39.42;18.48;;;14.20;94.90;;;;;;5056468;28;20528;-80
2022/06/09 00:38:50;;;;;;;32.25;16.00;;;14.10;94.90;;;;;;5039668;28;20179;-79
2022/06/09 00:41:16;;;;;;;46.83;18.25;;;14.10;94.90;;;;;;5072970;28;20178;-82
2022/06/09 00:43:44;;;;;;;43.30;18.02;;;14.10;94.90;;;;;;5056264;28;20052;-79
2022/06/09 00:46:27;;;;;;;36.75;16.40;;;14.10;94.90;;;;;;5056293;28;20083;-79
2022/06/09 00:49:01;;;;;;;48.08;19.60;;;14.10;94.90;;;;;;5056393;28;20048;-80
2022/06/09 00:51:40;;;;;;;37.03;17.55;;;14.00;94.90;;;;;;5072633;28;20500;-79
2022/06/09 00:54:21;;;;;;;40.20;17.02;;;14.00;94.90;;;;;;5072517;28;20037;-80
2022/06/09 00:56:52;;;;;;;43.95;17.67;;;14.00;95.00;;;;;;5056451;28;20044;-80
2022/06/09 00:59:21;;;;;;;48.10;18.83;;;13.90;95.00;;;;;;5056124;28;20036;-81
2022/06/09 01:01:47;;;;;;;41.95;17.27;;;13.80;94.90;;;;;;5039185;28;20040;-81
2022/06/09 01:04:16;;;;;;;44.75;18.52;;;13.70;94.90;;;;;;5073049;28;20047;-81
2022/06/09 01:06:50;;;;;;;40.45;17.88;;;13.70;95.00;;;;;;5072779;28;20109;-79
2022/06/09 01:09:23;;;;;;;48.13;19.67;;;13.70;95.00;;;;;;5072507;28;20048;-80
2022/06/09 01:11:51;;;;;;;38.40;17.70;;;13.60;95.00;;;;;;5055645;28;20102;-82
2022/06/09 01:14:22;;;;;;;47.28;18.42;;;13.50;95.00;;;;;;5072783;28;20052;-80
2022/06/09 01:17:13;;;;;;;84.75;19.90;;;13.50;95.00;;;;;;5055883;28;20037;-79
2022/06/09 01:19:44;;;;;;;59.20;18.55;;;13.50;95.00;;;;;;5072387;28;20401;-81
2022/06/09 01:22:25;;;;;;;91.25;21.45;;;13.40;95.00;;;;;;5072067;28;20040;-80
2022/06/09 01:25:12;;;;;;;92.97;18.50;;;13.30;95.00;;;;;;5072188;28;20136;-80
2022/06/09 01:28:06;;;;;;;164.48;26.17;;;13.20;95.00;;;;;;5072264;28;20041;-81
2022/06/09 01:30:53;;;;;;;55.30;18.23;;;13.10;95.00;;;;;;5072403;28;20040;-81
2022/06/09 01:33:42;;;;;;;105.03;20.80;;;13.00;95.10;;;;;;5072217;28;20040;-80
2022/06/09 01:36:14;;;;;;;172.18;23.17;;;13.00;95.20;;;;;;5055280;28;20040;-79
2022/06/09 01:38:49;;;;;;;296.95;32.10;;;12.90;95.30;;;;;;5055194;28;20162;-80
2022/06/09 01:41:16;;;;;;;190.57;26.55;;;12.90;95.30;;;;;;5072136;28;20041;-82
2022/06/09 01:43:44;;;;;;;139.43;22.05;;;12.80;95.60;;;;;;5072077;28;20055;-80
2022/06/09 01:46:19;;;;;;;158.70;22.75;;;12.80;95.60;;;;;;5038756;28;20042;-81
2022/06/09 01:48:45;;;;;;;79.07;16.85;;;12.70;95.80;;;;;;5055362;28;20044;-79
2022/06/09 01:51:17;;;;;;;55.97;19.00;;;12.60;95.90;;;;;;5055530;28;20040;-80
2022/06/09 01:53:51;;;;;;;51.13;21.30;;;12.50;95.80;;;;;;5071927;28;20072;-80
2022/06/09 01:56:27;;;;;;;31.98;19.02;;;12.60;95.80;;;;;;5056308;28;20033;-80
2022/06/09 01:59:00;;;;;;;38.95;19.00;;;12.50;95.70;;;;;;5071938;28;20496;-82
2022/06/09 02:01:31;;;;;;;47.67;19.42;;;12.50;95.70;;;;;;5055635;28;20040;-79
2022/06/09 02:04:01;;;;;;;46.50;19.20;;;12.60;95.60;;;;;;5071879;28;20091;-81
2022/06/09 02:06:28;;;;;;;32.40;18.77;;;12.60;95.50;;;;;;5055210;28;20052;-80
2022/06/09 02:08:54;;;;;;;42.83;19.77;;;12.60;95.60;;;;;;5055663;28;20044;-82
2022/06/09 02:11:21;;;;;;;34.55;18.63;;;12.60;95.60;;;;;;5072097;28;20449;-80
2022/06/09 02:13:50;;;;;;;24.85;15.68;;;12.60;95.50;;;;;;5071515;28;20078;-80
2022/06/09 02:16:19;;;;;;;34.17;19.35;;;12.60;95.50;;;;;;5071676;28;20052;-79
2022/06/09 02:18:48;;;;;;;34.28;19.35;;;12.60;95.50;;;;;;5072015;28;20041;-82
2022/06/09 02:21:26;;;;;;;40.33;19.95;;;12.60;95.70;;;;;;5072436;28;20091;-81
2022/06/09 02:23:53;;;;;;;30.52;17.67;;;12.70;95.50;;;;;;5071971;28;20041;-81
2022/06/09 02:26:20;;;;;;;28.90;16.75;;;12.70;95.50;;;;;;5055358;28;20467;-79
2022/06/09 02:28:47;;;;;;;28.10;17.55;;;12.70;95.50;;;;;;5071606;28;20051;-80
2022/06/09 02:31:14;;;;;;;26.98;18.20;;;12.70;95.80;;;;;;5071525;28;20496;-79
2022/06/09 02:33:39;;;;;;;30.20;17.98;;;12.70;95.70;;;;;;5071939;28;20468;-81
2022/06/09 02:36:05;;;;;;;29.25;17.08;;;12.70;95.60;;;;;;5071671;28;20090;-80
2022/06/09 02:38:31;;;;;;;28.17;17.23;;;12.70;95.70;;;;;;5071447;28;20094;-79
2022/06/09 02:40:57;;;;;;;30.15;17.60;;;12.70;95.70;;;;;;5055059;28;20044;-81
2022/06/09 02:43:24;;;;;;;26.40;16.60;;;12.70;95.70;;;;;;5071470;28;20043;-79
2022/06/09 02:45:50;;;;;;;25.33;14.23;;;12.70;95.70;;;;;;5072067;28;20045;-80
2022/06/09 02:48:17;;;;;;;23.00;14.82;;;12.70;95.70;;;;;;5071209;28;20103;-79
2022/06/09 02:50:43;;;;;;;25.70;14.75;;;12.70;95.70;;;;;;5041660;28;20040;-80
2022/06/09 02:53:10;;;;;;;22.88;14.88;;;12.70;95.70;;;;;;5074744;28;20123;-80
2022/06/09 02:55:36;;;;;;;23.52;14.40;;;12.80;95.70;;;;;;5074905;28;20037;-81
2022/06/09 02:58:02;;;;;;;19.13;12.75;;;12.80;95.60;;;;;;5058603;28;20111;-81
2022/06/09 03:00:28;;;;;;;24.38;15.57;;;12.80;95.60;;;;;;5058210;28;20037;-81
2022/06/09 03:02:57;;;;;;;21.20;13.48;;;12.80;95.60;;;;;;5058047;28;20036;-80
2022/06/09 03:05:24;;;;;;;17.98;13.05;;;12.80;95.60;;;;;;5058003;28;20101;-81
2022/06/09 03:07:50;;;;;;;17.95;11.82;;;12.80;95.60;;;;;;5058243;28;20045;-79
2022/06/09 03:10:16;;;;;;;23.10;14.68;;;12.90;95.70;;;;;;5041544;28;20037;-80
2022/06/09 03:12:42;;;;;;;18.70;13.25;;;12.80;95.70;;;;;;5058144;28;20048;-81
2022/06/09 03:15:10;;;;;;;22.13;12.95;;;12.90;95.70;;;;;;5057964;28;20036;-80
2022/06/09 03:17:36;;;;;;;20.45;13.50;;;12.90;95.60;;;;;;5057730;28;20028;-81
2022/06/09 03:20:05;;;;;;;19.90;14.15;;;12.90;95.70;;;;;;5057388;28;20036;-82
2022/06/09 03:22:32;;;;;;;23.67;14.48;;;12.90;95.60;;;;;;5057107;28;20094;-82
2022/06/09 03:24:59;;;;;;;17.60;13.27;;;13.00;95.60;;;;;;5057525;28;20044;-79
2022/06/09 03:27:24;;;;;;;21.58;15.00;;;13.00;95.70;;;;;;5074218;28;20481;-81
2022/06/09 03:29:50;;;;;;;26.10;16.38;;;13.00;95.70;;;;;;5073913;28;20041;-80
2022/06/09 03:32:16;;;;;;;22.45;16.08;;;13.10;95.70;;;;;;5040583;28;20072;-82
2022/06/09 03:34:42;;;;;;;24.98;16.83;;;13.10;95.70;;;;;;5073945;28;20123;-79
2022/06/09 03:37:07;;;;;;;22.88;16.50;;;13.10;95.80;;;;;;5041229;28;20090;-79
2022/06/09 03:39:33;;;;;;;20.70;16.00;;;13.20;95.70;;;;;;5040880;28;20032;-79
2022/06/09 03:41:59;;;;;;;20.70;14.40;;;13.10;95.70;;;;;;5073916;28;20043;-79
2022/06/09 03:44:25;;;;;;;28.52;19.48;;;13.20;95.70;;;;;;5040368;28;20049;-81
2022/06/09 03:46:50;;;;;;;25.98;19.45;;;13.30;95.70;;;;;;5073835;28;20135;-80
2022/06/09 03:49:16;;;;;;;29.98;18.85;;;13.30;95.80;;;;;;5040833;28;20089;-81
2022/06/09 03:51:42;;;;;;;25.92;18.35;;;13.30;95.70;;;;;;5073896;28;20083;-79
2022/06/09 03:54:08;;;;;;;26.13;19.40;;;13.40;95.70;;;;;;5057112;28;20511;-82
2022/06/09 03:56:34;;;;;;;26.10;19.67;;;13.40;95.70;;;;;;5057386;28;20097;-79
2022/06/09 03:59:00;;;;;;;26.52;20.20;;;13.50;95.70;;;;;;5057765;28;20040;-81
2022/06/09 04:01:26;;;;;;;21.90;15.88;;;13.50;95.70;;;;;;5056804;28;20469;-82
2022/06/09 04:03:52;;;;;;;24.73;19.65;;;13.50;95.70;;;;;;5024163;28;20041;-79
2022/06/09 04:06:22;;;;;;;20.10;15.90;;;13.50;95.70;;;;;;5040280;28;20171;-79
2022/06/09 04:08:49;;;;;;;24.38;16.75;;;13.60;95.70;;;;;;5073768;28;20028;-80
2022/06/09 04:11:16;;;;;;;21.75;15.93;;;13.60;95.70;;;;;;5057133;28;20040;-81
2022/06/09 04:13:42;;;;;;;15.90;13.05;;;13.60;95.60;;;;;;5056279;28;20057;-81
2022/06/09 04:16:27;;;;;;;19.35;14.57;;;13.60;95.60;;;;;;5073485;28;20196;-80
2022/06/09 04:18:55;;;;;;;25.08;16.73;;;13.70;95.60;;;;;;5073286;28;20047;-80
2022/06/09 04:21:22;;;;;;;17.33;13.23;;;13.70;95.40;;;;;;5073110;28;20120;-81
2022/06/09 04:23:48;;;;;;;16.50;13.50;;;13.80;95.30;;;;;;5056589;28;20041;-82
2022/06/09 04:26:17;;;;;;;19.75;14.15;;;13.80;95.20;;;;;;5056279;28;20041;-80
2022/06/09 04:28:44;;;;;;;20.27;14.73;;;13.80;95.20;;;;;;5073058;28;20036;-81
2022/06/09 04:31:10;;;;;;;23.73;18.48;;;13.80;95.10;;;;;;5073327;28;20453;-78
2022/06/09 04:33:36;;;;;;;23.60;16.50;;;13.90;95.00;;;;;;5056093;28;20076;-82
2022/06/09 04:36:02;;;;;;;20.92;16.98;;;13.90;94.90;;;;;;5039704;28;20146;-80
2022/06/09 04:38:27;;;;;;;22.00;15.95;;;13.90;94.90;;;;;;5072767;28;20037;-81
2022/06/09 04:40:54;;;;;;;27.25;17.90;;;13.90;94.90;;;;;;5073197;28;20094;-81
2022/06/09 04:43:20;;;;;;;27.65;17.48;;;14.00;95.00;;;;;;5039722;28;20048;-80
2022/06/09 04:45:46;;;;;;;23.52;15.30;;;14.00;94.90;;;;;;5056066;28;20037;-80
2022/06/09 04:48:12;;;;;;;17.85;14.63;;;14.00;94.90;;;;;;5039581;28;20075;-82
2022/06/09 04:50:39;;;;;;;23.92;16.00;;;14.00;94.80;;;;;;5056000;28;20085;-81
2022/06/09 04:53:07;;;;;;;26.48;17.55;;;14.10;94.80;;;;;;5072492;28;20036;-80
2022/06/09 04:55:33;;;;;;;21.55;16.50;;;14.00;94.60;;;;;;5072959;28;20040;-81
2022/06/09 04:57:59;;;;;;;24.13;17.83;;;14.10;94.70;;;;;;5055846;28;20484;-80
2022/06/09 05:00:26;;;;;;;25.17;19.85;;;14.10;94.50;;;;;;5039760;28;20075;-79
2022/06/09 05:02:53;;;;;;;18.30;13.55;;;14.10;94.50;;;;;;5072533;28;20509;-81
2022/06/09 05:05:30;;;;;;;22.55;19.40;;;14.10;94.60;;;;;;5071316;28;20162;-81
2022/06/09 05:07:56;;;;;;;24.08;17.98;;;14.20;94.50;;;;;;5053956;28;20126;-81
2022/06/09 05:10:22;;;;;;;19.50;15.75;;;14.20;94.60;;;;;;5068728;28;20492;-82
2022/06/09 05:12:48;;;;;;;25.05;19.67;;;14.20;94.50;;;;;;5034181;28;20082;-81
2022/06/09 05:15:17;;;;;;;24.80;19.58;;;14.20;94.50;;;;;;5050133;28;20496;-80
2022/06/09 05:17:43;;;;;;;27.52;21.40;;;14.30;94.50;;;;;;5068987;28;20094;-81
2022/06/09 05:20:12;;;;;;;24.15;19.27;;;14.30;94.60;;;;;;5070180;28;20041;-80
2022/06/09 05:22:38;;;;;;;22.23;15.52;;;14.40;94.70;;;;;;5066931;28;20040;-83
2022/06/09 05:25:04;;;;;;;19.55;15.77;;;14.40;94.60;;;;;;5066583;28;20048;-79
2022/06/09 05:27:30;;;;;;;19.85;16.27;;;14.50;94.60;;;;;;5068008;28;20133;-79
2022/06/09 05:29:56;;;;;;;21.85;16.65;;;14.50;94.40;;;;;;5052302;28;20479;-79
2022/06/09 05:32:22;;;;;;;18.90;16.00;;;14.50;94.10;;;;;;5051189;28;20059;-79
2022/06/09 05:34:48;;;;;;;17.83;15.00;;;14.60;94.00;;;;;;5052124;28;20048;-80
2022/06/09 05:37:14;;;;;;;17.55;14.27;;;14.60;93.90;;;;;;5068856;28;20044;-81
2022/06/09 05:45:19;;;;;;;19.58;16.48;;;14.80;93.90;;;;;;5022223;28;20041;-78
2022/06/09 05:47:44;;;;;;;17.40;13.80;;;14.80;93.80;;;;;;5068596;28;20105;-80
2022/06/09 05:50:11;;;;;;;19.80;14.57;;;14.80;93.90;;;;;;5068473;28;20129;-79
2022/06/09 05:52:37;;;;;;;16.73;13.13;;;14.80;93.70;;;;;;5050569;28;20101;-78
2022/06/09 05:55:04;;;;;;;17.05;15.18;;;14.80;93.40;;;;;;5067369;28;20041;-81
2022/06/09 05:57:30;;;;;;;16.05;14.38;;;14.90;93.30;;;;;;5068423;28;20032;-81
2022/06/09 05:59:56;;;;;;;16.05;12.75;;;14.90;93.30;;;;;;5068104;28;20044;-78
2022/06/09 06:02:24;;;;;;;15.57;11.90;;;15.00;93.20;;;;;;5051783;28;20514;-79
2022/06/09 06:04:51;;;;;;;15.57;12.80;;;15.00;92.90;;;;;;5068442;28;20052;-79
2022/06/09 06:07:17;;;;;;;14.13;11.55;;;14.90;92.90;;;;;;5068048;28;20053;-80
2022/06/09 06:09:43;;;;;;;14.70;12.40;;;14.90;92.90;;;;;;5050597;28;20078;-82
2022/06/09 06:12:09;;;;;;;15.18;12.48;;;15.00;92.80;;;;;;5049484;28;20470;-81
2022/06/09 06:14:35;;;;;;;13.45;10.27;;;15.00;92.80;;;;;;5066627;28;20041;-80
2022/06/09 06:17:01;;;;;;;15.63;12.00;;;15.10;92.70;;;;;;5034510;28;20354;-80
2022/06/09 06:19:27;;;;;;;12.77;10.00;;;15.20;92.40;;;;;;5051375;28;20123;-80
2022/06/09 06:21:53;;;;;;;12.50;6.95;;;15.30;92.30;;;;;;5050221;28;20222;-80
2022/06/09 06:24:23;;;;;;;16.17;8.98;;;15.30;92.00;;;;;;5037367;28;20514;-80
2022/06/09 06:26:49;;;;;;;13.07;8.75;;;15.30;91.80;;;;;;5055106;28;20462;-79
2022/06/09 06:29:22;;;;;;;9.65;8.48;;;15.40;91.70;;;;;;5054407;28;20412;-81
2022/06/09 06:31:48;;;;;;;10.60;6.82;;;15.50;91.60;;;;;;5070432;28;20044;-81
2022/06/09 06:34:14;;;;;;;9.35;5.95;;;15.60;90.70;;;;;;5070116;28;20404;-80
2022/06/09 06:36:40;;;;;;;9.45;5.57;;;15.60;90.70;;;;;;5037253;28;20043;-79
2022/06/09 06:39:06;;;;;;;11.93;6.20;;;15.70;90.40;;;;;;5054233;28;20041;-80
2022/06/09 06:41:32;;;;;;;11.77;5.25;;;15.70;90.30;;;;;;5037620;28;20040;-82
2022/06/09 06:43:57;;;;;;;11.45;5.80;;;15.80;90.20;;;;;;5055275;28;20048;-81
2022/06/09 06:46:24;;;;;;;6.78;4.78;;;15.80;89.90;;;;;;5054822;28;20123;-79
2022/06/09 06:48:49;;;;;;;6.15;3.88;;;15.90;89.30;;;;;;5071097;28;20048;-82
2022/06/09 06:51:15;;;;;;;6.97;3.50;;;16.00;88.40;;;;;;5053619;28;20542;-80
2022/06/09 06:53:41;;;;;;;5.80;3.15;;;16.00;88.30;;;;;;5072487;28;20071;-81
2022/06/09 06:56:08;;;;;;;6.85;2.83;;;16.00;88.50;;;;;;5071100;28;20055;-81
2022/06/09 06:58:35;;;;;;;6.22;3.20;;;16.10;88.00;;;;;;5054144;28;20036;-79
2022/06/09 07:01:02;;;;;;;5.78;3.15;;;16.20;87.20;;;;;;5052886;28;20067;-81
2022/06/09 07:03:29;;;;;;;7.32;2.30;;;16.20;86.90;;;;;;5074096;28;20416;-79
2022/06/09 07:05:55;;;;;;;5.00;2.47;;;16.30;86.40;;;;;;5057580;28;20497;-79
2022/06/09 07:08:23;;;;;;;5.00;2.22;;;16.30;86.60;;;;;;5057481;28;20424;-80
2022/06/09 07:10:49;;;;;;;5.40;2.42;;;16.40;86.10;;;;;;5074346;28;20402;-79
2022/06/09 07:13:15;;;;;;;7.78;2.60;;;16.40;85.70;;;;;;5040652;28;20049;-81
2022/06/09 07:15:40;;;;;;;5.10;1.92;;;16.50;85.70;;;;;;5057505;28;20055;-80
2022/06/09 07:18:06;;;;;;;4.05;2.80;;;16.60;85.90;;;;;;5057507;28;20078;-81
2022/06/09 07:20:32;;;;;;;6.00;2.22;;;16.60;85.70;;;;;;5074034;28;20032;-80
2022/06/09 07:22:58;;;;;;;5.10;2.13;;;16.70;85.10;;;;;;5041015;28;20074;-79
2022/06/09 07:25:26;;;;;;;4.53;2.47;;;16.70;84.90;;;;;;5040767;28;20127;-80
2022/06/09 07:27:53;;;;;;;7.97;2.20;;;16.70;84.80;;;;;;5073819;28;20558;-81
2022/06/09 07:30:21;;;;;;;3.47;1.95;;;16.70;84.70;;;;;;5057360;28;20055;-81
2022/06/09 07:32:47;;;;;;;6.10;1.95;;;16.80;84.60;;;;;;5073810;28;20044;-80
2022/06/09 07:35:17;;;;;;;5.20;1.60;;;16.90;84.10;;;;;;5056328;28;20080;-80
2022/06/09 07:37:43;;;;;;;7.57;1.90;;;16.90;83.40;;;;;;5057254;28;20029;-79
2022/06/09 07:40:10;;;;;;;10.52;2.60;;;16.90;83.40;;;;;;5073788;28;20083;-79
2022/06/09 07:42:36;;;;;;;4.88;1.42;;;17.00;83.40;;;;;;5073558;28;20124;-80
2022/06/09 07:45:03;;;;;;;6.95;2.90;;;17.00;83.40;;;;;;5073524;28;20127;-81
2022/06/09 07:47:28;;;;;;;5.15;1.60;;;17.10;83.70;;;;;;5073465;28;20109;-80
2022/06/09 07:49:54;;;;;;;6.10;1.98;;;17.10;83.80;;;;;;5073735;28;20127;-82
2022/06/09 07:52:21;;;;;;;4.45;1.60;;;17.20;83.00;;;;;;5073731;28;20055;-80
2022/06/09 07:54:47;;;;;;;10.52;2.40;;;17.30;82.80;;;;;;5040301;28;20047;-80
2022/06/09 07:57:13;;;;;;;7.43;1.95;;;17.30;82.20;;;;;;5056712;28;20468;-80
2022/06/09 07:59:39;;;;;;;6.15;2.28;;;17.30;82.60;;;;;;5056591;28;20032;-78
2022/06/09 08:02:04;;;;;;;7.90;2.20;;;17.40;82.80;;;;;;5073105;28;20032;-80
2022/06/09 08:04:30;;;;;;;6.47;2.15;;;17.40;82.30;;;;;;5056717;28;20036;-80
2022/06/09 08:06:56;;;;;;;8.57;3.00;;;17.40;82.80;;;;;;5056809;28;20546;-81
2022/06/09 08:09:22;;;;;;;6.88;2.00;;;17.50;82.20;;;;;;5073041;28;20052;-81
2022/06/09 08:11:49;;;;;;;6.90;2.45;;;17.60;81.70;;;;;;5056507;28;20053;-79
2022/06/09 08:14:14;;;;;;;8.82;3.17;;;17.60;81.90;;;;;;5056544;28;20045;-81
2022/06/09 08:16:41;;;;;;;9.38;2.10;;;17.70;81.60;;;;;;5039652;28;20051;-80
2022/06/09 08:19:07;;;;;;;5.82;2.40;;;17.80;81.30;;;;;;5072779;28;20040;-80
2022/06/09 08:21:33;;;;;;;8.35;2.15;;;17.90;81.70;;;;;;5073055;28;20036;-81
2022/06/09 08:24:00;;;;;;;6.72;1.70;;;17.80;81.00;;;;;;5056206;28;20546;-79
2022/06/09 08:26:26;;;;;;;6.97;2.28;;;17.80;81.30;;;;;;5072952;28;20454;-80
2022/06/09 08:28:52;;;;;;;10.45;2.95;;;17.70;80.80;;;;;;5072845;28;20072;-78
2022/06/09 08:31:18;;;;;;;6.72;1.98;;;17.70;80.90;;;;;;5055941;28;20036;-79
2022/06/09 08:33:44;;;;;;;7.88;2.40;;;17.70;80.00;;;;;;5056103;28;20040;-81
2022/06/09 08:36:10;;;;;;;10.23;2.70;;;17.70;80.50;;;;;;5055901;28;20074;-80
2022/06/09 08:38:36;;;;;;;7.20;1.90;;;17.80;80.10;;;;;;5072531;28;20070;-79
2022/06/09 08:41:17;;;;;;;9.55;2.15;;;17.80;80.20;;;;;;5072339;28;20040;-81
2022/06/09 08:43:47;;;;;;;4.40;1.70;;;17.80;80.80;;;;;;5056063;28;20050;-83
2022/06/09 08:46:23;;;;;;;8.20;2.45;;;17.80;80.40;;;;;;5055956;28;20404;-80
2022/06/09 08:48:50;;;;;;;10.00;2.95;;;17.90;79.40;;;;;;5055711;28;20040;-79
2022/06/09 08:51:29;;;;;;;4.95;1.67;;;18.00;80.00;;;;;;5055792;28;20163;-80
2022/06/09 08:54:21;;;;;;;8.30;2.15;;;18.20;79.40;;;;;;5072229;28;20048;-80
2022/06/09 08:56:48;;;;;;;8.23;2.20;;;18.30;78.40;;;;;;5072606;28;20186;-80
2022/06/09 08:59:18;;;;;;;6.53;2.13;;;18.30;78.50;;;;;;5072047;28;20041;-78
2022/06/09 09:01:44;;;;;;;6.22;1.92;;;18.30;77.90;;;;;;5072220;28;20036;-80
2022/06/09 09:04:27;;;;;;;9.02;2.85;;;18.40;78.10;;;;;;5055140;28;20124;-80
2022/06/09 09:07:05;;;;;;;10.90;2.65;;;18.30;77.70;;;;;;5072100;28;20044;-78
2022/06/09 09:09:33;;;;;;;10.10;2.53;;;18.30;77.80;;;;;;5071954;28;20045;-80
2022/06/09 09:12:23;;;;;;;8.05;2.13;;;18.50;77.80;;;;;;5055073;28;20163;-77
2022/06/09 09:15:04;;;;;;;7.68;2.00;;;18.60;77.60;;;;;;5071972;28;20595;-79
2022/06/09 09:17:50;;;;;;;10.00;2.35;;;18.80;77.50;;;;;;5072136;28;20048;-81
2022/06/09 09:20:28;;;;;;;7.32;1.80;;;18.80;76.30;;;;;;5071741;28;20051;-79
2022/06/09 09:23:17;;;;;;;11.00;2.05;;;18.70;76.00;;;;;;5071906;28;20128;-80
2022/06/09 09:25:45;;;;;;;5.97;1.90;;;18.70;75.80;;;;;;5055459;28;20040;-80
2022/06/09 09:28:30;;;;;;;9.00;2.70;;;18.60;75.90;;;;;;5055086;28;20480;-78
2022/06/09 09:31:13;;;;;;;8.73;2.28;;;18.50;76.40;;;;;;5072091;28;20485;-79
2022/06/09 09:33:38;;;;;;;9.45;3.35;;;18.50;76.20;;;;;;5054984;28;20102;-79
2022/06/09 09:36:17;;;;;;;9.63;2.53;;;18.50;76.10;;;;;;5071924;28;20040;-81
2022/06/09 09:39:06;;;;;;;7.22;1.90;;;18.60;76.60;;;;;;5071868;28;20047;-82
2022/06/09 09:41:35;;;;;;;5.20;2.05;;;18.60;76.30;;;;;;5044075;28;20098;-81
2022/06/09 09:44:23;;;;;;;7.75;2.40;;;18.60;75.80;;;;;;5071087;28;20044;-84
2022/06/09 09:47:00;;;;;;;7.22;2.85;;;18.60;75.50;;;;;;5054464;28;20484;-82
2022/06/09 09:49:42;;;;;;;8.27;2.33;;;18.50;76.00;;;;;;5038159;28;20522;-81
2022/06/09 09:52:38;;;;;;;5.78;1.50;;;18.70;76.20;;;;;;5055139;28;20396;-80
2022/06/09 09:55:30;;;;;;;5.65;1.90;;;18.90;74.70;;;;;;5071449;28;20036;-81
2022/06/09 09:58:17;;;;;;;9.43;2.60;;;18.90;74.50;;;;;;5072198;28;20610;-80
2022/06/09 10:00:44;;;;;;;6.70;1.67;;;18.80;75.20;;;;;;5058793;28;20040;-79
2022/06/09 10:09:12;;;;;;;6.00;1.80;;;19.00;73.90;;;;;;5075342;28;20052;-82
2022/06/09 10:11:55;;;;;;;4.95;2.17;;;19.10;73.90;;;;;;5058795;28;20378;-81
2022/06/09 10:14:44;;;;;;;5.65;1.75;;;19.20;73.40;;;;;;5060581;28;20106;-83
2022/06/09 10:17:43;;;;;;;5.05;1.85;;;19.30;72.40;;;;;;5046234;28;20400;-81
2022/06/09 10:20:39;;;;;;;5.35;1.70;;;19.40;72.50;;;;;;5075128;28;20040;-83
2022/06/09 10:23:10;;;;;;;6.70;1.80;;;19.50;71.60;;;;;;5058730;28;20090;-82
2022/06/09 10:26:00;;;;;;;6.47;1.98;;;19.60;72.00;;;;;;5075334;28;20045;-81
2022/06/09 10:28:32;;;;;;;5.07;1.42;;;19.70;70.30;;;;;;5058631;28;20071;-83
2022/06/09 10:31:32;;;;;;;7.95;1.40;;;19.70;70.80;;;;;;5058221;28;20097;-81
2022/06/09 10:34:33;;;;;;;7.75;1.60;;;19.70;69.70;;;;;;5074687;28;20488;-80
2022/06/09 10:37:25;;;;;;;10.10;2.30;;;19.70;70.20;;;;;;5074891;28;20094;-80
2022/06/09 10:40:09;;;;;;;6.18;1.75;;;19.70;70.40;;;;;;5074974;28;20048;-79
2022/06/09 10:42:40;;;;;;;5.03;1.58;;;19.70;71.00;;;;;;5074872;28;20047;-80
2022/06/09 10:45:42;;;;;;;4.47;1.45;;;19.90;70.70;;;;;;5057977;28;20044;-80
2022/06/09 10:57:16;;;;;;;6.95;1.85;;;19.90;69.20;;;;;;5074863;28;20040;-81
2022/06/09 10:59:48;;;;;;;8.88;1.65;;;20.00;69.80;;;;;;5074829;28;20393;-81
2022/06/09 11:02:19;;;;;;;4.13;1.30;;;20.20;69.70;;;;;;5057763;28;20036;-83
2022/06/09 11:04:46;;;;;;;11.07;2.67;;;20.40;69.10;;;;;;5074395;28;20511;-85
2022/06/09 11:07:27;;;;;;;7.82;2.08;;;20.30;68.50;;;;;;5057406;28;20033;-83
2022/06/09 11:10:12;;;;;;;5.43;2.20;;;20.10;68.70;;;;;;5056306;28;20032;-81
2022/06/09 11:12:56;;;;;;;9.80;2.78;;;20.00;68.70;;;;;;5074013;28;20056;-80
2022/06/09 11:15:26;;;;;;;6.55;1.90;;;20.00;69.60;;;;;;5057411;28;20484;-81
2022/06/09 11:18:11;;;;;;;5.30;1.65;;;20.00;68.40;;;;;;5057683;28;20366;-80
2022/06/09 11:20:58;;;;;;;5.85;1.67;;;20.00;68.60;;;;;;5057311;28;20044;-79
2022/06/09 11:23:42;;;;;;;6.30;1.92;;;20.00;68.10;;;;;;5074101;28;20098;-81
2022/06/09 11:26:47;;;;;;;6.95;2.25;;;20.00;68.10;;;;;;5053456;28;20043;-80
2022/06/09 11:29:31;;;;;;;4.78;1.50;;;20.00;67.30;;;;;;5069228;28;20045;-80
2022/06/09 11:32:02;;;;;;;6.93;2.17;;;20.00;67.70;;;;;;5050787;28;20036;-80
2022/06/09 11:34:54;;;;;;;6.50;2.08;;;20.10;68.00;;;;;;5051336;28;20117;-79
2022/06/09 11:37:26;;;;;;;5.75;1.83;;;20.10;69.10;;;;;;5034743;28;20044;-79
2022/06/09 11:40:11;;;;;;;7.30;2.00;;;20.10;67.90;;;;;;5057051;28;20036;-80
2022/06/09 11:42:51;;;;;;;7.60;2.55;;;20.00;67.40;;;;;;5073654;28;20059;-79
2022/06/09 11:45:35;;;;;;;6.25;2.35;;;20.10;67.70;;;;;;5073700;28;20043;-80
2022/06/09 11:48:04;;;;;;;6.30;1.90;;;20.20;68.40;;;;;;5073592;28;20051;-78
2022/06/09 11:50:42;;;;;;;8.63;2.30;;;20.10;67.90;;;;;;5073344;28;20044;-79
2022/06/09 11:53:12;;;;;;;6.05;2.03;;;20.10;68.60;;;;;;5057102;28;20051;-79
2022/06/09 11:55:59;;;;;;;8.00;2.10;;;20.00;68.20;;;;;;5073368;28;20048;-78
2022/06/09 11:58:34;;;;;;;8.60;2.67;;;20.10;68.50;;;;;;5056897;28;20036;-79
2022/06/09 12:01:38;;;;;;;8.55;2.63;;;20.20;68.90;;;;;;5056774;28;20461;-81
2022/06/09 12:04:12;;;;;;;6.82;2.38;;;20.20;68.90;;;;;;5071626;28;20512;-79
2022/06/09 12:07:15;;;;;;;7.32;2.13;;;20.20;68.80;;;;;;5073353;28;20048;-80
2022/06/09 12:09:40;;;;;;;7.72;2.47;;;20.00;68.80;;;;;;5056431;28;20135;-80
2022/06/09 12:12:31;;;;;;;4.80;2.05;;;20.10;69.50;;;;;;5072815;28;20112;-80
2022/06/09 12:15:12;;;;;;;9.32;3.03;;;20.10;68.20;;;;;;5072985;28;20044;-78
2022/06/09 12:17:52;;;;;;;8.60;2.25;;;20.20;68.50;;;;;;5056533;28;20052;-78
2022/06/09 12:20:32;;;;;;;4.30;1.73;;;20.20;67.30;;;;;;5056203;28;20037;-78
2022/06/09 12:23:28;;;;;;;5.63;2.10;;;20.40;67.50;;;;;;5072936;28;20076;-79
2022/06/09 12:26:09;;;;;;;6.53;2.10;;;20.30;66.00;;;;;;5072750;28;20083;-78
2022/06/09 12:28:53;;;;;;;6.18;2.00;;;20.20;67.40;;;;;;5072750;28;20048;-80
2022/06/09 12:31:22;;;;;;;3.43;1.67;;;20.30;66.40;;;;;;5056317;28;20381;-80
2022/06/09 12:34:00;;;;;;;4.80;2.42;;;20.40;66.10;;;;;;5072719;28;20639;-78
2022/06/09 12:36:38;;;;;;;6.63;1.98;;;20.20;65.40;;;;;;5056243;28;20036;-79
2022/06/09 12:39:29;;;;;;;8.70;2.47;;;20.20;66.40;;;;;;5072595;28;20040;-79
2022/06/09 12:41:58;;;;;;;7.10;2.40;;;20.30;66.70;;;;;;5065669;28;20045;-79
2022/06/09 12:44:26;;;;;;;4.97;2.15;;;20.30;67.30;;;;;;5072733;28;20127;-82
2022/06/09 12:47:03;;;;;;;5.18;2.67;;;20.50;66.40;;;;;;5072654;28;20048;-81
2022/06/09 12:49:32;;;;;;;6.07;2.50;;;20.50;66.20;;;;;;5072330;28;20079;-80
2022/06/09 12:51:58;;;;;;;6.43;2.00;;;20.60;66.60;;;;;;5055665;28;20076;-81
2022/06/09 12:54:32;;;;;;;7.03;1.75;;;20.70;65.50;;;;;;5055582;28;20044;-77
2022/06/09 12:57:23;;;;;;;4.35;1.83;;;20.80;63.70;;;;;;5055729;28;20173;-79
2022/06/09 13:00:16;;;;;;;5.97;2.13;;;20.80;64.80;;;;;;5072458;28;20048;-85
2022/06/09 13:02:43;;;;;;;8.45;2.15;;;20.70;64.00;;;;;;5072337;28;20492;-82
2022/06/09 13:05:20;;;;;;;4.63;1.90;;;20.80;64.60;;;;;;5055578;28;20044;-84
2022/06/09 13:07:56;;;;;;;5.93;1.60;;;20.90;64.90;;;;;;5072171;28;20048;-82
2022/06/09 13:10:38;;;;;;;8.90;2.22;;;20.90;63.40;;;;;;5055651;28;20036;-81
2022/06/09 13:13:18;;;;;;;8.95;1.90;;;21.00;63.70;;;;;;5072069;28;20127;-82
2022/06/09 13:16:00;;;;;;;6.32;1.98;;;20.90;62.30;;;;;;5055285;28;20048;-83
2022/06/09 13:18:32;;;;;;;5.80;1.63;;;21.00;62.80;;;;;;5072031;28;20044;-83
2022/06/09 13:21:06;;;;;;;6.03;2.17;;;21.00;62.40;;;;;;5055535;28;20447;-82